THY1VF LTAI-LTFM
Flight info
| Callsign | THY1VF |
|---|---|
| Flight time | 1h 1m |
| Altitude | 38000 |
| Route | EKSEN1F/36R EKSEN UM855 SISPI |
| Aircraft | A21N/M-SDE2E3FGHIRWXY/LB1 |
Departure
| Time | 2026-02-19 14:21 |
|---|---|
| Airport | Antalya International Airport (LTAI) |
Arrival
| Time | 2026-02-19 15:22 |
|---|---|
| Airport | İstanbul Airport (LTFM) |
| Time | Latitude | Longitude | Altitude | Speed | Heading |
|---|---|---|---|---|---|
| 2026-02-19 13:54 | 36.91379 | 30.79814 | 194 ft | 0 kts | 277° |
| 2026-02-19 14:07 | 36.91379 | 30.79815 | 194 ft | 2 kts | 277° |
| 2026-02-19 14:07 | 36.91377 | 30.79836 | 205 ft | 2 kts | 277° |
| 2026-02-19 14:07 | 36.91375 | 30.79856 | 197 ft | 2 kts | 276° |
| 2026-02-19 14:07 | 36.91374 | 30.79877 | 194 ft | 2 kts | 261° |
| 2026-02-19 14:08 | 36.91381 | 30.79895 | 209 ft | 2 kts | 227° |
| 2026-02-19 14:08 | 36.91396 | 30.79906 | 194 ft | 0 kts | 189° |
| 2026-02-19 14:10 | 36.91391 | 30.79905 | 204 ft | 3 kts | 189° |
| 2026-02-19 14:11 | 36.91354 | 30.79899 | 199 ft | 8 kts | 187° |
| 2026-02-19 14:11 | 36.91284 | 30.79889 | 201 ft | 12 kts | 185° |
| 2026-02-19 14:11 | 36.91202 | 30.79880 | 207 ft | 12 kts | 185° |
| 2026-02-19 14:11 | 36.91118 | 30.79870 | 201 ft | 12 kts | 186° |
| 2026-02-19 14:12 | 36.91031 | 30.79858 | 196 ft | 13 kts | 186° |
| 2026-02-19 14:12 | 36.90885 | 30.79771 | 204 ft | 12 kts | 226° |
| 2026-02-19 14:12 | 36.90807 | 30.79736 | 207 ft | 12 kts | 186° |
| 2026-02-19 14:13 | 36.90709 | 30.79723 | 198 ft | 16 kts | 186° |
| 2026-02-19 14:13 | 36.90596 | 30.79707 | 207 ft | 17 kts | 186° |
| 2026-02-19 14:13 | 36.90481 | 30.79692 | 198 ft | 17 kts | 182° |
| 2026-02-19 14:13 | 36.90401 | 30.79775 | 197 ft | 16 kts | 105° |
| 2026-02-19 14:14 | 36.90386 | 30.79913 | 205 ft | 16 kts | 96° |
| 2026-02-19 14:14 | 36.90373 | 30.80053 | 199 ft | 16 kts | 96° |
| 2026-02-19 14:14 | 36.90360 | 30.80196 | 195 ft | 17 kts | 96° |
| 2026-02-19 14:14 | 36.90347 | 30.80340 | 195 ft | 17 kts | 96° |
| 2026-02-19 14:15 | 36.90335 | 30.80487 | 199 ft | 17 kts | 96° |
| 2026-02-19 14:15 | 36.90323 | 30.80634 | 195 ft | 17 kts | 96° |
| 2026-02-19 14:15 | 36.90263 | 30.80742 | 195 ft | 15 kts | 159° |
| 2026-02-19 14:15 | 36.90162 | 30.80774 | 207 ft | 15 kts | 184° |
| 2026-02-19 14:16 | 36.90046 | 30.80756 | 195 ft | 18 kts | 186° |
| 2026-02-19 14:16 | 36.89757 | 30.80716 | 205 ft | 23 kts | 186° |
| 2026-02-19 14:16 | 36.89588 | 30.80693 | 200 ft | 26 kts | 186° |
| 2026-02-19 14:17 | 36.89407 | 30.80670 | 202 ft | 26 kts | 186° |
| 2026-02-19 14:17 | 36.89227 | 30.80646 | 207 ft | 26 kts | 186° |
| 2026-02-19 14:17 | 36.89049 | 30.80620 | 197 ft | 26 kts | 187° |
| 2026-02-19 14:17 | 36.88873 | 30.80595 | 206 ft | 25 kts | 186° |
| 2026-02-19 14:18 | 36.88700 | 30.80571 | 197 ft | 25 kts | 186° |
| 2026-02-19 14:18 | 36.88555 | 30.80552 | 207 ft | 17 kts | 186° |
| 2026-02-19 14:18 | 36.88435 | 30.80536 | 198 ft | 17 kts | 186° |
| 2026-02-19 14:18 | 36.88316 | 30.80520 | 202 ft | 17 kts | 186° |
| 2026-02-19 14:19 | 36.88212 | 30.80506 | 207 ft | 12 kts | 186° |
| 2026-02-19 14:19 | 36.88144 | 30.80545 | 202 ft | 12 kts | 109° |
| 2026-02-19 14:19 | 36.88131 | 30.80655 | 193 ft | 14 kts | 96° |
| 2026-02-19 14:19 | 36.88154 | 30.80734 | 196 ft | 9 kts | 19° |
| 2026-02-19 14:20 | 36.89077 | 30.80859 | 201 ft | 130 kts | 6° |
| 2026-02-19 14:20 | 36.90150 | 30.81006 | 232 ft | 175 kts | 4° |
| 2026-02-19 14:21 | 36.91347 | 30.81205 | 928 ft | 168 kts | 6° |
| 2026-02-19 14:21 | 36.92469 | 30.81543 | 1685 ft | 166 kts | 18° |
| 2026-02-19 14:21 | 36.93586 | 30.82118 | 2194 ft | 186 kts | 23° |
| 2026-02-19 14:21 | 36.94832 | 30.82811 | 2692 ft | 205 kts | 23° |
| 2026-02-19 14:22 | 36.96253 | 30.83366 | 3169 ft | 229 kts | 7° |
| 2026-02-19 14:22 | 36.97920 | 30.83472 | 3775 ft | 247 kts | 358° |
| 2026-02-19 14:22 | 36.99653 | 30.83335 | 4710 ft | 252 kts | 353° |
| 2026-02-19 14:22 | 37.01413 | 30.83057 | 5649 ft | 257 kts | 351° |
| 2026-02-19 14:23 | 37.03189 | 30.82708 | 6558 ft | 261 kts | 349° |
| 2026-02-19 14:23 | 37.04998 | 30.82335 | 7424 ft | 265 kts | 349° |
| 2026-02-19 14:23 | 37.06840 | 30.81962 | 8296 ft | 270 kts | 349° |
| 2026-02-19 14:23 | 37.08707 | 30.81600 | 9187 ft | 274 kts | 349° |
| 2026-02-19 14:24 | 37.10615 | 30.81246 | 10054 ft | 278 kts | 349° |
| 2026-02-19 14:24 | 37.14681 | 30.80514 | 10905 ft | 317 kts | 349° |
| 2026-02-19 14:24 | 37.16945 | 30.80112 | 11259 ft | 337 kts | 349° |
| 2026-02-19 14:25 | 37.19316 | 30.79695 | 11807 ft | 349 kts | 349° |
| 2026-02-19 14:25 | 37.21736 | 30.79274 | 12563 ft | 354 kts | 349° |
| 2026-02-19 14:25 | 37.24191 | 30.78848 | 13329 ft | 359 kts | 349° |
| 2026-02-19 14:25 | 37.26682 | 30.78414 | 14090 ft | 362 kts | 348° |
| 2026-02-19 14:26 | 37.29168 | 30.77979 | 14790 ft | 366 kts | 348° |
| 2026-02-19 14:26 | 37.31697 | 30.77534 | 15490 ft | 370 kts | 348° |
| 2026-02-19 14:26 | 37.34265 | 30.77082 | 16196 ft | 373 kts | 348° |
| 2026-02-19 14:26 | 37.36843 | 30.76628 | 16887 ft | 377 kts | 348° |
| 2026-02-19 14:27 | 37.39436 | 30.76170 | 17561 ft | 379 kts | 348° |
| 2026-02-19 14:27 | 37.42067 | 30.75704 | 18214 ft | 384 kts | 348° |
| 2026-02-19 14:27 | 37.44740 | 30.75230 | 18793 ft | 388 kts | 347° |
| 2026-02-19 14:27 | 37.47430 | 30.74754 | 19379 ft | 391 kts | 347° |
| 2026-02-19 14:28 | 37.50125 | 30.74277 | 19947 ft | 393 kts | 347° |
| 2026-02-19 14:28 | 37.55577 | 30.73313 | 21144 ft | 397 kts | 347° |
| 2026-02-19 14:28 | 37.58321 | 30.72826 | 21701 ft | 400 kts | 347° |
| 2026-02-19 14:29 | 37.61087 | 30.72334 | 22231 ft | 403 kts | 347° |
| 2026-02-19 14:29 | 37.63870 | 30.71840 | 22761 ft | 404 kts | 347° |
| 2026-02-19 14:29 | 37.66670 | 30.71346 | 23266 ft | 407 kts | 347° |
| 2026-02-19 14:29 | 37.69485 | 30.70845 | 23764 ft | 410 kts | 347° |
| 2026-02-19 14:30 | 37.72321 | 30.70336 | 24188 ft | 412 kts | 347° |
| 2026-02-19 14:30 | 37.75169 | 30.69823 | 24595 ft | 415 kts | 347° |
| 2026-02-19 14:30 | 37.78038 | 30.69307 | 25035 ft | 418 kts | 347° |
| 2026-02-19 14:30 | 37.80933 | 30.68788 | 25438 ft | 421 kts | 347° |
| 2026-02-19 14:31 | 37.83842 | 30.68268 | 25834 ft | 423 kts | 347° |
| 2026-02-19 14:31 | 37.86771 | 30.67744 | 26221 ft | 426 kts | 347° |
| 2026-02-19 14:31 | 37.89710 | 30.67218 | 26592 ft | 428 kts | 347° |
| 2026-02-19 14:31 | 37.92672 | 30.66687 | 26952 ft | 431 kts | 347° |
| 2026-02-19 14:32 | 37.95613 | 30.66160 | 27324 ft | 433 kts | 347° |
| 2026-02-19 14:32 | 38.01607 | 30.65189 | 28070 ft | 437 kts | 349° |
| 2026-02-19 14:32 | 38.04621 | 30.64788 | 28480 ft | 437 kts | 349° |
| 2026-02-19 14:33 | 38.07647 | 30.64409 | 28987 ft | 435 kts | 349° |
| 2026-02-19 14:33 | 38.10657 | 30.64036 | 29467 ft | 434 kts | 349° |
| 2026-02-19 14:33 | 38.13652 | 30.63660 | 29916 ft | 432 kts | 349° |
| 2026-02-19 14:33 | 38.16642 | 30.63279 | 30321 ft | 431 kts | 349° |
| 2026-02-19 14:34 | 38.19616 | 30.62894 | 30676 ft | 429 kts | 349° |
| 2026-02-19 14:34 | 38.22580 | 30.62507 | 31022 ft | 428 kts | 349° |
| 2026-02-19 14:34 | 38.25547 | 30.62117 | 31353 ft | 427 kts | 349° |
| 2026-02-19 14:34 | 38.28500 | 30.61860 | 31665 ft | 428 kts | 353° |
| 2026-02-19 14:35 | 38.31487 | 30.61756 | 32000 ft | 428 kts | 353° |
| 2026-02-19 14:35 | 38.34470 | 30.61690 | 32289 ft | 428 kts | 354° |
| 2026-02-19 14:35 | 38.37450 | 30.61648 | 32611 ft | 427 kts | 354° |
| 2026-02-19 14:35 | 38.40410 | 30.61619 | 33017 ft | 424 kts | 354° |
| 2026-02-19 14:36 | 38.43353 | 30.61595 | 33376 ft | 421 kts | 354° |
| 2026-02-19 14:36 | 38.49209 | 30.61540 | 33891 ft | 420 kts | 354° |
| 2026-02-19 14:36 | 38.52113 | 30.61509 | 34168 ft | 419 kts | 354° |
| 2026-02-19 14:37 | 38.55049 | 30.61476 | 34388 ft | 419 kts | 354° |
| 2026-02-19 14:37 | 38.57963 | 30.61443 | 34543 ft | 419 kts | 353° |
| 2026-02-19 14:37 | 38.60885 | 30.61408 | 34694 ft | 420 kts | 353° |
| 2026-02-19 14:37 | 38.63809 | 30.61373 | 34855 ft | 420 kts | 353° |
| 2026-02-19 14:38 | 38.66728 | 30.61339 | 35012 ft | 420 kts | 353° |
| 2026-02-19 14:38 | 38.69576 | 30.61110 | 35156 ft | 416 kts | 346° |
| 2026-02-19 14:38 | 38.72411 | 30.60406 | 35292 ft | 410 kts | 339° |
| 2026-02-19 14:38 | 38.75127 | 30.59182 | 35431 ft | 405 kts | 331° |
| 2026-02-19 14:39 | 38.77694 | 30.57684 | 35584 ft | 404 kts | 329° |
| 2026-02-19 14:39 | 38.80210 | 30.56098 | 35789 ft | 402 kts | 328° |
| 2026-02-19 14:39 | 38.82687 | 30.54473 | 35979 ft | 400 kts | 328° |
| 2026-02-19 14:39 | 38.85162 | 30.52823 | 36096 ft | 401 kts | 327° |
| 2026-02-19 14:40 | 38.87638 | 30.51168 | 36217 ft | 401 kts | 327° |
| 2026-02-19 14:40 | 38.92586 | 30.47877 | 36453 ft | 401 kts | 327° |
| 2026-02-19 14:40 | 38.95078 | 30.46230 | 36559 ft | 402 kts | 327° |
| 2026-02-19 14:41 | 38.97535 | 30.44610 | 36663 ft | 402 kts | 327° |
| 2026-02-19 14:41 | 39.00020 | 30.42973 | 36740 ft | 403 kts | 327° |
| 2026-02-19 14:41 | 39.05027 | 30.39672 | 36961 ft | 404 kts | 327° |
| 2026-02-19 14:42 | 39.07533 | 30.38019 | 37063 ft | 404 kts | 327° |
| 2026-02-19 14:42 | 39.10039 | 30.36363 | 37116 ft | 405 kts | 327° |
| 2026-02-19 14:42 | 39.15062 | 30.33039 | 37221 ft | 407 kts | 327° |
| 2026-02-19 14:43 | 39.20118 | 30.29689 | 37339 ft | 409 kts | 327° |
| 2026-02-19 14:43 | 39.25168 | 30.26336 | 37455 ft | 410 kts | 327° |
| 2026-02-19 14:44 | 39.31946 | 30.21830 | 37747 ft | 409 kts | 327° |
| 2026-02-19 14:45 | 39.37840 | 30.17901 | 37827 ft | 412 kts | 327° |
| 2026-02-19 14:45 | 39.42944 | 30.14493 | 37929 ft | 413 kts | 327° |
| 2026-02-19 14:46 | 39.47255 | 30.11693 | 38000 ft | 416 kts | 329° |
| 2026-02-19 14:46 | 39.52583 | 30.08664 | 38112 ft | 419 kts | 330° |
| 2026-02-19 14:47 | 39.57904 | 30.05772 | 38202 ft | 420 kts | 330° |
| 2026-02-19 14:47 | 39.63298 | 30.02808 | 38205 ft | 421 kts | 330° |
| 2026-02-19 14:48 | 39.68727 | 29.99788 | 38196 ft | 420 kts | 330° |
| 2026-02-19 14:48 | 39.76747 | 29.95294 | 38209 ft | 420 kts | 330° |
| 2026-02-19 14:49 | 39.79424 | 29.93791 | 38085 ft | 418 kts | 330° |
| 2026-02-19 14:49 | 39.82091 | 29.92291 | 37642 ft | 417 kts | 330° |
| 2026-02-19 14:49 | 39.84751 | 29.90795 | 37063 ft | 415 kts | 330° |
| 2026-02-19 14:49 | 39.87381 | 29.89315 | 36481 ft | 412 kts | 330° |
| 2026-02-19 14:50 | 39.90025 | 29.87875 | 35910 ft | 411 kts | 334° |
| 2026-02-19 14:50 | 39.92775 | 29.86812 | 35389 ft | 412 kts | 342° |
| 2026-02-19 14:50 | 39.95581 | 29.86120 | 34881 ft | 410 kts | 344° |
| 2026-02-19 14:50 | 39.98399 | 29.85516 | 34391 ft | 407 kts | 345° |
| 2026-02-19 14:51 | 40.01185 | 29.84932 | 33838 ft | 404 kts | 345° |
| 2026-02-19 14:51 | 40.03959 | 29.84349 | 33262 ft | 403 kts | 345° |
| 2026-02-19 14:51 | 40.06739 | 29.83759 | 32705 ft | 406 kts | 345° |
| 2026-02-19 14:51 | 40.09539 | 29.83163 | 32156 ft | 410 kts | 345° |
| 2026-02-19 14:52 | 40.12333 | 29.82568 | 31665 ft | 413 kts | 345° |
| 2026-02-19 14:52 | 40.18053 | 29.81349 | 30740 ft | 420 kts | 345° |
| 2026-02-19 14:52 | 40.20945 | 29.80733 | 30293 ft | 422 kts | 345° |
| 2026-02-19 14:53 | 40.23849 | 29.80113 | 29761 ft | 425 kts | 345° |
| 2026-02-19 14:53 | 40.26772 | 29.79489 | 29158 ft | 425 kts | 345° |
| 2026-02-19 14:53 | 40.29689 | 29.78866 | 28381 ft | 424 kts | 345° |
| 2026-02-19 14:53 | 40.32602 | 29.78276 | 27651 ft | 420 kts | 341° |
| 2026-02-19 14:54 | 40.35385 | 29.77250 | 27092 ft | 415 kts | 337° |
| 2026-02-19 14:54 | 40.38140 | 29.76086 | 26598 ft | 414 kts | 336° |
| 2026-02-19 14:54 | 40.40868 | 29.74900 | 26099 ft | 412 kts | 336° |
| 2026-02-19 14:54 | 40.43581 | 29.73713 | 25608 ft | 410 kts | 336° |
| 2026-02-19 14:55 | 40.46289 | 29.72526 | 25125 ft | 408 kts | 336° |
| 2026-02-19 14:55 | 40.48970 | 29.71350 | 24649 ft | 406 kts | 336° |
| 2026-02-19 14:55 | 40.51627 | 29.70183 | 24179 ft | 403 kts | 336° |
| 2026-02-19 14:55 | 40.54285 | 29.69013 | 23706 ft | 402 kts | 336° |
| 2026-02-19 14:56 | 40.56939 | 29.67844 | 23179 ft | 400 kts | 336° |
| 2026-02-19 14:56 | 40.62142 | 29.65552 | 22277 ft | 394 kts | 336° |
| 2026-02-19 14:56 | 40.64766 | 29.64395 | 21828 ft | 391 kts | 336° |
| 2026-02-19 14:57 | 40.67335 | 29.63260 | 21386 ft | 388 kts | 336° |
| 2026-02-19 14:57 | 40.69848 | 29.62150 | 20973 ft | 385 kts | 336° |
| 2026-02-19 14:57 | 40.72418 | 29.61014 | 20525 ft | 382 kts | 336° |
| 2026-02-19 14:57 | 40.74924 | 29.59904 | 20110 ft | 380 kts | 336° |
| 2026-02-19 14:58 | 40.77357 | 29.58826 | 19706 ft | 377 kts | 336° |
| 2026-02-19 14:58 | 40.79891 | 29.57785 | 19283 ft | 376 kts | 339° |
| 2026-02-19 14:58 | 40.82400 | 29.56829 | 18878 ft | 374 kts | 339° |
| 2026-02-19 14:58 | 40.84907 | 29.55877 | 18576 ft | 372 kts | 339° |
| 2026-02-19 14:59 | 40.87379 | 29.54932 | 18248 ft | 370 kts | 339° |
| 2026-02-19 14:59 | 40.89850 | 29.53981 | 17884 ft | 369 kts | 339° |
| 2026-02-19 14:59 | 40.92310 | 29.53029 | 17536 ft | 367 kts | 339° |
| 2026-02-19 14:59 | 40.94763 | 29.52078 | 17193 ft | 366 kts | 339° |
| 2026-02-19 15:00 | 40.97145 | 29.51153 | 16857 ft | 364 kts | 339° |
| 2026-02-19 15:00 | 41.02059 | 29.49240 | 16172 ft | 361 kts | 339° |
| 2026-02-19 15:00 | 41.04462 | 29.48304 | 15865 ft | 359 kts | 339° |
| 2026-02-19 15:01 | 41.06803 | 29.47391 | 15542 ft | 358 kts | 339° |
| 2026-02-19 15:01 | 41.09187 | 29.46460 | 15215 ft | 356 kts | 339° |
| 2026-02-19 15:01 | 41.11523 | 29.45547 | 14913 ft | 354 kts | 339° |
| 2026-02-19 15:01 | 41.13883 | 29.44624 | 14597 ft | 353 kts | 339° |
| 2026-02-19 15:02 | 41.16230 | 29.43706 | 14284 ft | 351 kts | 339° |
| 2026-02-19 15:02 | 41.18579 | 29.42785 | 13966 ft | 350 kts | 339° |
| 2026-02-19 15:02 | 41.20903 | 29.41874 | 13625 ft | 349 kts | 339° |
| 2026-02-19 15:02 | 41.23234 | 29.40959 | 13276 ft | 347 kts | 339° |
| 2026-02-19 15:03 | 41.25545 | 29.40052 | 12944 ft | 345 kts | 339° |
| 2026-02-19 15:03 | 41.27846 | 29.39148 | 12595 ft | 343 kts | 339° |
| 2026-02-19 15:03 | 41.30126 | 29.38252 | 12263 ft | 341 kts | 340° |
| 2026-02-19 15:03 | 41.32400 | 29.37357 | 11928 ft | 339 kts | 340° |
| 2026-02-19 15:04 | 41.34630 | 29.36479 | 11604 ft | 338 kts | 340° |
| 2026-02-19 15:04 | 41.39135 | 29.34705 | 10972 ft | 326 kts | 340° |
| 2026-02-19 15:04 | 41.41253 | 29.33874 | 10881 ft | 309 kts | 340° |
| 2026-02-19 15:05 | 41.43262 | 29.33084 | 10767 ft | 294 kts | 340° |
| 2026-02-19 15:05 | 41.45146 | 29.32342 | 10621 ft | 280 kts | 339° |
| 2026-02-19 15:05 | 41.46977 | 29.31618 | 10510 ft | 268 kts | 339° |
| 2026-02-19 15:05 | 41.48749 | 29.30916 | 10252 ft | 264 kts | 339° |
| 2026-02-19 15:06 | 41.50503 | 29.30218 | 9894 ft | 263 kts | 339° |
| 2026-02-19 15:06 | 41.52247 | 29.29525 | 9549 ft | 260 kts | 339° |
| 2026-02-19 15:06 | 41.53975 | 29.28839 | 9200 ft | 258 kts | 339° |
| 2026-02-19 15:06 | 41.55696 | 29.28155 | 8799 ft | 257 kts | 339° |
| 2026-02-19 15:07 | 41.57391 | 29.27478 | 8506 ft | 253 kts | 338° |
| 2026-02-19 15:07 | 41.58973 | 29.26534 | 8232 ft | 246 kts | 324° |
| 2026-02-19 15:07 | 41.60242 | 29.25052 | 7962 ft | 242 kts | 303° |
| 2026-02-19 15:07 | 41.60898 | 29.23023 | 7681 ft | 239 kts | 277° |
| 2026-02-19 15:08 | 41.60891 | 29.20808 | 7392 ft | 239 kts | 264° |
| 2026-02-19 15:08 | 41.60402 | 29.16413 | 6858 ft | 240 kts | 261° |
| 2026-02-19 15:08 | 41.60140 | 29.14202 | 6588 ft | 239 kts | 261° |
| 2026-02-19 15:09 | 41.59888 | 29.12042 | 6309 ft | 238 kts | 261° |
| 2026-02-19 15:09 | 41.59637 | 29.09854 | 6171 ft | 237 kts | 261° |
| 2026-02-19 15:09 | 41.59387 | 29.07665 | 6104 ft | 238 kts | 261° |
| 2026-02-19 15:09 | 41.59139 | 29.05482 | 5990 ft | 238 kts | 261° |
| 2026-02-19 15:10 | 41.58891 | 29.03298 | 5769 ft | 238 kts | 261° |
| 2026-02-19 15:10 | 41.58643 | 29.01108 | 5497 ft | 237 kts | 261° |
| 2026-02-19 15:10 | 41.58398 | 28.98947 | 5239 ft | 235 kts | 260° |
| 2026-02-19 15:10 | 41.58167 | 28.96791 | 5015 ft | 234 kts | 264° |
| 2026-02-19 15:11 | 41.58300 | 28.94657 | 4830 ft | 226 kts | 285° |
| 2026-02-19 15:11 | 41.58915 | 28.92791 | 4597 ft | 220 kts | 295° |
| 2026-02-19 15:11 | 41.59663 | 28.91009 | 4420 ft | 221 kts | 297° |
| 2026-02-19 15:11 | 41.60433 | 28.89228 | 4237 ft | 220 kts | 297° |
| 2026-02-19 15:12 | 41.61192 | 28.87463 | 4053 ft | 219 kts | 296° |
| 2026-02-19 15:12 | 41.62699 | 28.83927 | 4006 ft | 218 kts | 296° |
| 2026-02-19 15:12 | 41.63421 | 28.82153 | 3999 ft | 217 kts | 291° |
| 2026-02-19 15:13 | 41.63768 | 28.80220 | 3999 ft | 212 kts | 267° |
| 2026-02-19 15:13 | 41.63407 | 28.78341 | 4003 ft | 209 kts | 239° |
| 2026-02-19 15:13 | 41.62419 | 28.76937 | 4006 ft | 210 kts | 216° |
| 2026-02-19 15:13 | 41.61232 | 28.75974 | 3996 ft | 187 kts | 210° |
| 2026-02-19 15:14 | 41.60083 | 28.75267 | 3993 ft | 179 kts | 199° |
| 2026-02-19 15:14 | 41.58893 | 28.75035 | 3987 ft | 168 kts | 185° |
| 2026-02-19 15:14 | 41.57734 | 28.75033 | 3999 ft | 166 kts | 182° |
| 2026-02-19 15:14 | 41.56582 | 28.75066 | 4002 ft | 166 kts | 182° |
| 2026-02-19 15:15 | 41.55432 | 28.75100 | 4005 ft | 165 kts | 182° |
| 2026-02-19 15:15 | 41.54279 | 28.75130 | 4006 ft | 165 kts | 182° |
| 2026-02-19 15:15 | 41.53142 | 28.75156 | 4007 ft | 165 kts | 182° |
| 2026-02-19 15:15 | 41.51997 | 28.75180 | 4002 ft | 165 kts | 182° |
| 2026-02-19 15:16 | 41.50847 | 28.75204 | 4003 ft | 165 kts | 182° |
| 2026-02-19 15:16 | 41.48557 | 28.75223 | 4001 ft | 165 kts | 183° |
| 2026-02-19 15:16 | 41.47393 | 28.75239 | 3994 ft | 165 kts | 182° |
| 2026-02-19 15:17 | 41.46247 | 28.75268 | 3848 ft | 164 kts | 182° |
| 2026-02-19 15:17 | 41.45104 | 28.75296 | 3614 ft | 164 kts | 183° |
| 2026-02-19 15:17 | 41.43970 | 28.75317 | 3360 ft | 163 kts | 183° |
| 2026-02-19 15:17 | 41.42853 | 28.75339 | 3123 ft | 162 kts | 184° |
| 2026-02-19 15:18 | 41.41738 | 28.75362 | 2891 ft | 158 kts | 184° |
| 2026-02-19 15:18 | 41.40640 | 28.75383 | 2674 ft | 157 kts | 184° |
| 2026-02-19 15:18 | 41.39552 | 28.75404 | 2465 ft | 156 kts | 184° |
| 2026-02-19 15:18 | 41.38473 | 28.75426 | 2248 ft | 154 kts | 184° |
| 2026-02-19 15:19 | 41.37408 | 28.75447 | 2050 ft | 152 kts | 184° |
| 2026-02-19 15:19 | 41.36356 | 28.75467 | 1827 ft | 150 kts | 183° |
| 2026-02-19 15:19 | 41.35361 | 28.75489 | 1613 ft | 136 kts | 183° |
| 2026-02-19 15:19 | 41.34446 | 28.75506 | 1432 ft | 129 kts | 182° |
| 2026-02-19 15:20 | 41.33547 | 28.75523 | 1268 ft | 129 kts | 183° |
| 2026-02-19 15:20 | 41.31750 | 28.75558 | 897 ft | 129 kts | 182° |
| 2026-02-19 15:20 | 41.30856 | 28.75576 | 726 ft | 129 kts | 182° |
| 2026-02-19 15:21 | 41.29964 | 28.75593 | 562 ft | 129 kts | 182° |
| 2026-02-19 15:21 | 41.29065 | 28.75611 | 391 ft | 128 kts | 182° |
| 2026-02-19 15:21 | 41.28190 | 28.75630 | 336 ft | 119 kts | 181° |
| 2026-02-19 15:21 | 41.27517 | 28.75638 | 333 ft | 71 kts | 179° |
| 2026-02-19 15:22 | 41.27084 | 28.75562 | 336 ft | 18 kts | 206° |
| 2026-02-19 15:22 | 41.26973 | 28.75483 | 334 ft | 16 kts | 208° |
| 2026-02-19 15:22 | 41.26942 | 28.75461 | 336 ft | 0 kts | 208° |
| 2026-02-19 15:23 | 41.26941 | 28.75460 | 336 ft | 0 kts | 208° |
| 2026-02-19 15:23 | 41.26927 | 28.75451 | 333 ft | 5 kts | 208° |
| 2026-02-19 15:24 | 41.26704 | 28.75380 | 333 ft | 17 kts | 179° |
| 2026-02-19 15:24 | 41.26575 | 28.75383 | 336 ft | 19 kts | 179° |
| 2026-02-19 15:25 | 41.26441 | 28.75386 | 337 ft | 19 kts | 179° |
| 2026-02-19 15:25 | 41.26309 | 28.75388 | 333 ft | 19 kts | 179° |
| 2026-02-19 15:25 | 41.26177 | 28.75391 | 332 ft | 19 kts | 179° |
| 2026-02-19 15:25 | 41.26048 | 28.75394 | 334 ft | 18 kts | 179° |
| 2026-02-19 15:26 | 41.25933 | 28.75397 | 332 ft | 14 kts | 179° |
| 2026-02-19 15:26 | 41.25888 | 28.75397 | 332 ft | 7 kts | 188° |
| 2026-02-19 15:26 | 41.25853 | 28.75348 | 335 ft | 9 kts | 257° |
| 2026-02-19 15:26 | 41.25848 | 28.75255 | 334 ft | 11 kts | 269° |
| 2026-02-19 15:27 | 41.25862 | 28.75142 | 335 ft | 9 kts | 283° |
| 2026-02-19 15:27 | 41.25854 | 28.75062 | 336 ft | 9 kts | 253° |
| 2026-02-19 15:27 | 41.25844 | 28.75020 | 334 ft | 0 kts | 251° |